Henderson, MN (56044)

2:53 PM CDT on July 28, 2016 (GMT -0500)
The Cedars | | Change Station

Elev 902 ft 44.43 °N, 93.89 °W | Updated 23 seconds ago

Mostly Cloudy
Mostly Cloudy
71.1 °F
Feels Like 72 °F
N
2.7
Wind Variable Wind from WNW

Today
High -- | Low -- °F
--% Chance of Precip.
Yesterday
High -- | Low -- °F
Precip. -- in
Pressure 30.03 in
Visibility 10.0 miles
Clouds Mostly Cloudy 2300 ft
Mostly Cloudy 3000 ft
Mostly Cloudy 3400 ft
Heat Index 72 °F
Dew Point 65 °F
Humidity 80%
Rainfall 0.00 in
Snow Depth Not available.
5:58 AM 8:45 PM
Waning Crescent, 29% visible
METAR KGYL 281935Z AUTO 35007KT 10SM BKN023 BKN030 BKN034 23/19 A3003 RMK AO2 T02270188
Pressure 30.03 in
Visibility 10.0 miles
Clouds Mostly Cloudy 2300 ft
Mostly Cloudy 3000 ft
Mostly Cloudy 3400 ft
Heat Index 72 °F
Dew Point 65 °F
Humidity 80%
Rainfall 0.00 in
Snow Depth Not available.
5:58 AM 8:45 PM
Waning Crescent, 29% visible
METAR KGYL 281935Z AUTO 35007KT 10SM BKN023 BKN030 BKN034 23/19 A3003 RMK AO2 T02270188

10-Day Weather Forecast

Almanac

Astronomy

Jul. 28, 2016 Rise Set
Actual Time
Civil Twilight
Nautical Twilight
Astronomical Twilight
Moon
Length of Visible Light
Length of Day
Tomorrow will be .
, % of the Moon is Illuminated

Today's Extremes

State Highs State Lows

Community

WunderPhotos

Upload Photos

1,928,194 photos uploaded!

WunderBlog® & News

Nearby

Air Quality

  Air Quality AQ Index Pollutant
Not available.

Snow Depth

Station Depth Elevation

Earthquake Activity

City Distance Mag. Time & Date
Minimum magnitude displayed is 2.5.

Coastal Water Temperatures

Place Temperature

Stations

Nearby Weather Stations

Station Location Temp. Windchill Dew Point Humidity Wind Precip. Elev Updated Type
                   

Watches & Warnings

There are currently no watches in effect.